Melbourne, Iowa
Current Conditions -  °F | °C
As of 10:53 AM on Friday 24 Oct 2014 (Local Time) from KMIW Reporting Station
Haze Haze  
Wind Chill: 58°   Ceiling: 200
Heat Index: 58°   Visibility: 0.75mi
Dew Point: 58°   Wind: 13mph
Humidity: 100%   Direction: 160°SSE
Pressure: 29.96"   Gusts: NA
Location:  41.94°N, 93.1°W
Report Text: KMIW 241553Z AUTO 16011KT 3/4SM BR OVC002 14/14 A2996 RMK AO2 SLP148 T01440144
Loading
Personal Weather Stations






























Interactive Weather Map
Tropical Storm Tracking
New forecast layout! Learn more

10-Day Weather Forecast

Advertisements
Track Severe Weather on mobile